Bamberg-Breitenau Airport


Codes: ETEJ/ZCD
Name: Bamberg-Breitenau Airport
City: Bamberg
Country: Germany
Elevation: 837 ft.

Photos at Bamberg-Breitenau Airport


   Photos courtesy of SpottingLog. You can add your own sightings and photos by signing up for a free trial today.



No photos found.

Weather at Bamberg-Breitenau Airport


Time (UTC)DescriptionTempratureWindCloud coverageVisibilityPressureHumidity
13-Jun-2024 03:00Scattered Clouds7°C2 mph, NW37%10000m1020hPa99%
13-Jun-2024 06:00Scattered Clouds9°C2 mph, NW48%10000m1020hPa89%
13-Jun-2024 09:00Broken Clouds13°C4 mph, W62%10000m1019hPa63%
13-Jun-2024 12:00Scattered Clouds19°C7 mph, W48%10000m1017hPa35%
13-Jun-2024 15:00Scattered Clouds18°C7 mph, W33%10000m1017hPa40%
13-Jun-2024 18:00Scattered Clouds16°C0 mph, NW48%10000m1016hPa65%
13-Jun-2024 21:00Broken Clouds10°C2 mph, SE68%10000m1017hPa76%
14-Jun-2024 00:00Broken Clouds10°C4 mph, SE84%10000m1017hPa71%
14-Jun-2024 03:00Overcast Clouds9°C2 mph, SE100%10000m1015hPa74%
14-Jun-2024 06:00Overcast Clouds13°C2 mph, SE100%10000m1014hPa66%
14-Jun-2024 09:00Overcast Clouds16°C7 mph, SE100%10000m1014hPa63%
14-Jun-2024 12:00Light Rain13°C7 mph, S100%10000m1015hPa95%
14-Jun-2024 15:00Overcast Clouds14°C7 mph, S100%10000m1014hPa91%
14-Jun-2024 18:00Overcast Clouds15°C4 mph, SE98%10000m1013hPa85%
14-Jun-2024 21:00Overcast Clouds12°C4 mph, SE91%10000m1014hPa96%
15-Jun-2024 00:00Light Rain12°C4 mph, SE95%10000m1012hPa96%
15-Jun-2024 03:00Overcast Clouds11°C4 mph, SE99%10000m1009hPa95%
15-Jun-2024 06:00Overcast Clouds16°C4 mph, SW98%10000m1007hPa81%
15-Jun-2024 09:00Moderate Rain13°C2 mph, S100%10000m1011hPa98%
15-Jun-2024 12:00Light Rain19°C13 mph, SW87%10000m1011hPa52%
15-Jun-2024 15:00Light Rain19°C11 mph, SW43%10000m1011hPa49%
15-Jun-2024 18:00Scattered Clouds17°C4 mph, S42%10000m1012hPa70%
15-Jun-2024 21:00Light Rain12°C4 mph, SE93%10000m1013hPa95%
16-Jun-2024 00:00Overcast Clouds12°C4 mph, SE94%10000m1013hPa97%
16-Jun-2024 03:00Overcast Clouds11°C4 mph, S99%10000m1013hPa98%
16-Jun-2024 06:00Broken Clouds14°C4 mph, S83%10000m1013hPa86%
16-Jun-2024 09:00Light Rain19°C9 mph, SW97%10000m1013hPa61%
16-Jun-2024 12:00Light Rain21°C11 mph, SW100%10000m1013hPa48%
16-Jun-2024 15:00Overcast Clouds21°C9 mph, W99%10000m1014hPa48%
16-Jun-2024 18:00Broken Clouds18°C4 mph, SW65%10000m1014hPa70%
16-Jun-2024 21:00Clear Sky13°C2 mph, SE7%10000m1016hPa88%
17-Jun-2024 00:00Broken Clouds12°C2 mph, SE53%10000m1016hPa90%
17-Jun-2024 03:00Scattered Clouds11°C2 mph, SE47%10000m1016hPa96%
17-Jun-2024 06:00Scattered Clouds17°C4 mph, SE46%10000m1016hPa74%
17-Jun-2024 09:00Broken Clouds23°C7 mph, S63%10000m1016hPa56%
17-Jun-2024 12:00Scattered Clouds26°C7 mph, SW44%10000m1015hPa42%
17-Jun-2024 15:00Broken Clouds26°C7 mph, SW69%10000m1014hPa44%
17-Jun-2024 18:00Broken Clouds22°C2 mph, NW82%10000m1015hPa73%
17-Jun-2024 21:00Light Rain16°C0 mph, NE39%10000m1016hPa89%
18-Jun-2024 00:00Light Rain15°C2 mph, E68%10000m1017hPa94%